Time;durP1;ratioP1;P1;durP2;ratioP2;P2;SDS_P1;SDS_P2;PMS_P1;PMS_P2;Temp;Humidity;BMP_temperature;BMP_pressure;BME280_temperature;BME280_humidity;BME280_pressure;Samples;Min_cycle;Max_cycle;Signal;HPM_P1;HPM_P2
2021/11/03 00:00:44;;;;;;;40.33;24.73;;;;;;;8.91;100.00;97124.16;4937083;29;20043;-75
2021/11/03 00:03:10;;;;;;;37.40;24.80;;;;;;;8.80;100.00;97122.78;4942339;29;20027;-75
2021/11/03 00:05:45;;;;;;;37.28;24.10;;;;;;;8.83;100.00;97109.34;4936485;29;20484;-76
2021/11/03 00:08:18;;;;;;;39.58;26.50;;;;;;;8.74;100.00;97118.53;4937381;29;20028;-75
2021/11/03 00:10:45;;;;;;;36.70;25.73;;;;;;;8.75;100.00;97125.59;4934803;29;20090;-75
2021/11/03 00:13:13;;;;;;;38.78;24.10;;;;;;;8.78;100.00;97133.97;4934659;29;20562;-75
2021/11/03 00:15:38;;;;;;;39.72;23.30;;;;;;;8.88;100.00;97135.69;4934355;29;20075;-75
2021/11/03 00:18:04;;;;;;;34.55;22.73;;;;;;;8.94;100.00;97134.47;4934436;29;20035;-75
2021/11/03 00:20:31;;;;;;;33.42;21.98;;;;;;;9.00;100.00;97127.78;4928169;29;20138;-75
2021/11/03 00:22:57;;;;;;;31.58;22.30;;;;;;;9.00;100.00;97127.78;4942855;29;20849;-74
2021/11/03 00:25:23;;;;;;;33.90;22.90;;;;;;;8.85;100.00;97128.91;4941168;29;20039;-74
2021/11/03 00:27:49;;;;;;;32.65;22.40;;;;;;;8.90;100.00;97138.91;4934013;29;20031;-75
2021/11/03 00:30:14;;;;;;;32.63;22.67;;;;;;;8.90;100.00;97131.53;4933918;29;20044;-74
2021/11/03 00:32:40;;;;;;;31.55;22.10;;;;;;;8.91;100.00;97132.34;4917007;29;20032;-74
2021/11/03 00:35:05;;;;;;;37.40;24.80;;;;;;;8.79;100.00;97126.59;4934035;29;20083;-74
2021/11/03 00:37:31;;;;;;;36.17;23.13;;;;;;;8.81;100.00;97124.38;4933816;29;20040;-74
2021/11/03 00:39:56;;;;;;;32.15;22.75;;;;;;;8.83;100.00;97133.88;4933976;29;20031;-75
2021/11/03 00:42:22;;;;;;;32.80;22.23;;;;;;;8.82;100.00;97131.44;4934064;29;20485;-74
2021/11/03 00:44:47;;;;;;;29.67;21.27;;;;;;;8.82;100.00;97132.25;4934054;29;20031;-75
2021/11/03 00:47:12;;;;;;;25.95;18.90;;;;;;;8.80;100.00;97117.31;4933920;29;20489;-75
2021/11/03 00:49:38;;;;;;;24.98;18.50;;;;;;;8.79;100.00;97121.97;4934119;29;20115;-75
2021/11/03 00:52:04;;;;;;;23.80;18.00;;;;;;;8.83;100.00;97124.88;4934129;29;20058;-76
2021/11/03 00:54:29;;;;;;;23.25;17.40;;;;;;;8.78;100.00;97125.78;4934047;29;20055;-75
2021/11/03 00:56:55;;;;;;;24.70;16.55;;;;;;;8.76;100.00;97122.56;4941443;29;20054;-75
2021/11/03 00:59:20;;;;;;;22.65;15.57;;;;;;;8.82;100.00;97128.72;4943938;29;20497;-75
2021/11/03 01:01:46;;;;;;;20.90;13.82;;;;;;;8.86;100.00;97121.56;4948524;29;20032;-75
2021/11/03 01:04:12;;;;;;;21.55;15.70;;;;;;;8.77;100.00;97115.19;4952799;29;20026;-75
2021/11/03 01:06:38;;;;;;;20.42;13.20;;;;;;;8.77;100.00;97134.28;4952753;29;20090;-75
2021/11/03 01:09:04;;;;;;;22.23;15.15;;;;;;;8.78;100.00;97142.16;4953064;29;20062;-75
2021/11/03 01:11:29;;;;;;;21.90;14.40;;;;;;;8.70;100.00;97147.50;4952495;29;20102;-76
2021/11/03 01:13:55;;;;;;;20.25;14.10;;;;;;;8.73;100.00;97153.16;4952736;29;20109;-75
2021/11/03 01:16:20;;;;;;;22.48;15.50;;;;;;;8.74;100.00;97129.44;4935326;29;20417;-75
2021/11/03 01:18:45;;;;;;;21.30;15.40;;;;;;;8.67;100.00;97129.03;4952665;29;20042;-75
2021/11/03 01:21:11;;;;;;;20.38;14.70;;;;;;;8.62;100.00;97121.75;4952677;29;20031;-75
2021/11/03 01:23:36;;;;;;;22.45;15.85;;;;;;;8.54;100.00;97125.19;4953236;29;20023;-75
2021/11/03 01:26:02;;;;;;;23.02;15.35;;;;;;;8.56;100.00;97129.22;4952497;29;20070;-75
2021/11/03 01:28:27;;;;;;;22.75;15.77;;;;;;;8.55;100.00;97122.16;4952371;29;20086;-75
2021/11/03 01:30:53;;;;;;;25.75;16.05;;;;;;;8.52;100.00;97111.84;4952162;29;20118;-75
2021/11/03 01:33:20;;;;;;;21.27;15.30;;;;;;;8.51;100.00;97114.91;4941777;29;20119;-75
2021/11/03 01:35:46;;;;;;;22.95;15.63;;;;;;;8.53;100.00;97121.66;4943391;29;20018;-75
2021/11/03 01:38:13;;;;;;;21.63;15.43;;;;;;;8.57;100.00;97122.69;4949454;28;20027;-75
2021/11/03 01:40:44;;;;;;;27.75;15.52;;;;;;;8.59;100.00;97120.44;4952630;29;20050;-75
2021/11/03 01:43:30;;;;;;;21.75;14.63;;;;;;;8.69;100.00;97124.06;4953188;29;20062;-75
2021/11/03 01:46:16;;;;;;;20.27;14.50;;;;;;;8.72;100.00;97126.19;4948645;29;20079;-76
2021/11/03 01:48:41;;;;;;;21.23;14.88;;;;;;;8.69;100.00;97124.06;4903211;29;20082;-75
2021/11/03 01:51:09;;;;;;;21.45;15.00;;;;;;;8.73;100.00;97123.19;4945274;29;20106;-75
2021/11/03 01:53:34;;;;;;;23.88;15.18;;;;;;;8.69;100.00;97118.63;4952437;29;20043;-75
2021/11/03 01:56:07;;;;;;;20.55;14.88;;;;;;;8.69;100.00;97132.25;4943336;29;20086;-75
2021/11/03 01:58:48;;;;;;;25.30;17.10;;;;;;;8.68;100.00;97125.19;4933041;29;20047;-75
2021/11/03 02:01:14;;;;;;;23.70;16.40;;;;;;;8.71;100.00;97119.16;4933517;29;20476;-75
2021/11/03 02:03:41;;;;;;;23.65;16.05;;;;;;;8.74;100.00;97115.81;4933683;29;20035;-75
2021/11/03 02:06:13;;;;;;;27.00;17.85;;;;;;;8.73;100.00;97111.47;4932668;29;20400;-74
2021/11/03 02:08:42;;;;;;;24.20;16.70;;;;;;;8.72;100.00;97121.56;4937996;29;20031;-74
2021/11/03 02:11:08;;;;;;;21.33;15.13;;;;;;;8.70;100.00;97120.25;4942752;29;20018;-74
2021/11/03 02:13:37;;;;;;;26.08;16.25;;;;;;;8.69;100.00;97129.53;4946951;29;20106;-74
2021/11/03 02:16:03;;;;;;;23.33;16.45;;;;;;;8.70;100.00;97117.53;4952803;29;20427;-73
2021/11/03 02:18:31;;;;;;;23.52;16.88;;;;;;;8.69;100.00;97110.44;4952377;29;20034;-74
2021/11/03 02:20:57;;;;;;;27.38;16.38;;;;;;;8.67;100.00;97116.22;4952575;29;20125;-74
2021/11/03 02:23:25;;;;;;;24.15;16.75;;;;;;;8.73;100.00;97111.47;4952807;29;20468;-74
2021/11/03 02:26:04;;;;;;;23.00;15.82;;;;;;;8.73;100.00;97125.09;4952153;29;20392;-75
2021/11/03 02:28:30;;;;;;;24.75;16.02;;;;;;;8.68;100.00;97117.81;4955295;29;20047;-74
2021/11/03 02:30:56;;;;;;;21.80;16.15;;;;;;;8.74;100.00;97107.63;4963633;29;20047;-74
2021/11/03 02:33:23;;;;;;;24.90;16.90;;;;;;;8.67;100.00;97116.22;4955006;29;20038;-75
2021/11/03 02:35:56;;;;;;;23.77;16.73;;;;;;;8.66;100.00;97122.78;4952390;29;20032;-75
2021/11/03 02:38:35;;;;;;;23.73;16.27;;;;;;;8.71;100.00;97119.94;4952453;29;20054;-75
2021/11/03 02:41:27;;;;;;;22.88;17.27;;;;;;;8.78;100.00;97120.34;4952114;29;20054;-76
2021/11/03 02:44:06;;;;;;;23.08;17.25;;;;;;;8.75;100.00;97120.13;4936661;29;20047;-75
2021/11/03 02:46:31;;;;;;;25.63;17.25;;;;;;;8.79;100.00;97121.97;4940857;29;20039;-75
2021/11/03 02:48:57;;;;;;;25.48;17.55;;;;;;;8.76;100.00;97119.84;4922926;29;20028;-75
2021/11/03 02:51:28;;;;;;;25.17;17.48;;;;;;;8.66;100.00;97120.03;4935757;29;20495;-76
2021/11/03 02:53:59;;;;;;;25.92;17.60;;;;;;;8.78;100.00;97127.69;4936755;29;20047;-76
2021/11/03 02:56:30;;;;;;;22.85;16.70;;;;;;;8.80;100.00;97129.00;4936937;29;20447;-75
2021/11/03 02:58:57;;;;;;;29.73;18.63;;;;;;;8.79;100.00;97130.13;4937004;29;20032;-75
2021/11/03 03:01:35;;;;;;;30.75;21.75;;;;;;;8.76;100.00;97122.56;4936224;29;20043;-75
2021/11/03 03:04:07;;;;;;;28.35;20.33;;;;;;;8.73;100.00;97128.63;4936947;29;20078;-75
2021/11/03 03:06:32;;;;;;;28.00;19.42;;;;;;;8.74;100.00;97134.91;4918817;29;20053;-75
2021/11/03 03:08:59;;;;;;;26.05;19.63;;;;;;;8.77;100.00;97131.56;4936919;29;20497;-76
2021/11/03 03:11:27;;;;;;;23.95;17.88;;;;;;;8.78;100.00;97128.50;4936445;29;20441;-75
2021/11/03 03:13:53;;;;;;;24.23;18.10;;;;;;;8.67;100.00;97118.94;4936688;29;20099;-74
2021/11/03 03:16:20;;;;;;;24.73;18.90;;;;;;;8.60;100.00;97119.34;4919430;29;20473;-75
2021/11/03 03:18:46;;;;;;;23.23;17.55;;;;;;;8.55;100.00;97122.16;4918915;29;20035;-74
2021/11/03 03:21:13;;;;;;;25.80;18.45;;;;;;;8.59;100.00;97120.44;4943269;29;20043;-75
2021/11/03 03:23:40;;;;;;;24.88;17.10;;;;;;;8.62;100.00;97116.28;4945994;29;20430;-75
2021/11/03 03:26:07;;;;;;;27.23;17.02;;;;;;;8.64;100.00;97124.19;4952174;29;20135;-75
2021/11/03 03:28:32;;;;;;;32.65;18.00;;;;;;;8.69;100.00;97118.63;4954851;29;20543;-75
2021/11/03 03:30:58;;;;;;;24.25;18.30;;;;;;;8.63;100.00;97114.38;4955922;29;20048;-76
2021/11/03 03:33:24;;;;;;;25.60;18.00;;;;;;;8.65;100.00;97121.16;4937440;29;20495;-76
2021/11/03 03:35:50;;;;;;;27.08;19.23;;;;;;;8.72;100.00;97123.47;4954949;29;20114;-75
2021/11/03 03:38:15;;;;;;;28.00;17.80;;;;;;;8.77;100.00;97117.94;4954937;29;20126;-75
2021/11/03 03:40:41;;;;;;;26.38;18.08;;;;;;;8.67;100.00;97104.50;4955320;29;20039;-76
2021/11/03 03:43:07;;;;;;;25.80;18.20;;;;;;;8.67;100.00;97129.84;4955159;29;20031;-76
2021/11/03 03:45:32;;;;;;;25.13;18.77;;;;;;;8.68;100.00;97114.31;4955200;29;20035;-75
2021/11/03 03:47:58;;;;;;;28.17;17.98;;;;;;;8.72;100.00;97120.75;4955001;29;20066;-75
2021/11/03 03:50:23;;;;;;;26.38;18.63;;;;;;;8.66;100.00;97113.78;4954928;29;20035;-75
2021/11/03 03:52:49;;;;;;;26.55;18.08;;;;;;;8.66;100.00;97120.03;4955461;29;20117;-75
2021/11/03 03:55:14;;;;;;;27.75;19.73;;;;;;;8.71;100.00;97119.94;4952798;29;20035;-75
2021/11/03 03:57:40;;;;;;;26.73;17.13;;;;;;;8.72;100.00;97118.00;4945065;29;20016;-76
2021/11/03 04:00:09;;;;;;;18.38;12.15;;;;;;;8.61;100.00;97129.13;4944704;29;20019;-75
2021/11/03 04:02:35;;;;;;;26.85;12.68;;;;;;;8.57;100.00;97136.31;4935599;29;20032;-75
2021/11/03 04:05:00;;;;;;;14.48;10.73;;;;;;;8.45;100.00;97132.47;4937979;29;20430;-76
2021/11/03 04:07:26;;;;;;;16.73;10.63;;;;;;;8.37;100.00;97131.22;4945299;29;20057;-76
2021/11/03 04:09:51;;;;;;;15.65;11.27;;;;;;;8.32;100.00;97125.88;4946111;29;20106;-75
2021/11/03 04:12:16;;;;;;;17.40;10.85;;;;;;;8.26;100.00;97129.78;4954266;29;20034;-76
2021/11/03 04:14:42;;;;;;;17.77;11.25;;;;;;;8.18;100.00;97127.75;4953808;29;20124;-76
2021/11/03 04:17:07;;;;;;;14.80;9.98;;;;;;;8.24;100.00;97120.31;4954528;29;20038;-76
2021/11/03 04:19:33;;;;;;;15.20;9.60;;;;;;;8.21;100.00;97127.13;4953716;29;20110;-75
2021/11/03 04:21:58;;;;;;;16.08;9.52;;;;;;;8.23;100.00;97124.94;4954748;29;20027;-75
2021/11/03 04:24:24;;;;;;;16.58;9.77;;;;;;;8.23;100.00;97138.56;4954490;29;20064;-75
2021/11/03 04:26:50;;;;;;;14.95;9.93;;;;;;;8.12;100.00;97134.38;4954415;29;20023;-75
2021/11/03 04:29:18;;;;;;;18.40;10.85;;;;;;;8.17;100.00;97125.34;4937010;29;20039;-75
2021/11/03 04:31:44;;;;;;;13.77;9.88;;;;;;;8.25;100.00;97122.72;4951232;29;20385;-75
2021/11/03 04:34:10;;;;;;;13.63;9.63;;;;;;;8.19;100.00;97123.09;4944710;29;20020;-75
2021/11/03 04:36:35;;;;;;;13.98;9.63;;;;;;;8.14;100.00;97121.28;4942003;29;20049;-76
2021/11/03 04:39:04;;;;;;;16.95;10.73;;;;;;;8.14;100.00;97115.03;4934757;29;20059;-76
2021/11/03 04:41:29;;;;;;;15.38;10.30;;;;;;;8.07;100.00;97116.25;4935542;29;20107;-75
2021/11/03 04:43:55;;;;;;;16.58;11.20;;;;;;;8.15;100.00;97116.63;4934598;29;20119;-75
2021/11/03 04:46:20;;;;;;;20.20;11.15;;;;;;;8.11;100.00;97111.00;4935002;29;20034;-76
2021/11/03 04:48:46;;;;;;;16.63;10.80;;;;;;;8.22;100.00;97111.59;4934519;29;20036;-75
2021/11/03 04:51:12;;;;;;;15.73;10.05;;;;;;;8.17;100.00;97115.25;4934914;29;20036;-76
2021/11/03 04:53:38;;;;;;;15.05;10.38;;;;;;;8.09;100.00;97113.19;4935586;29;20393;-75
2021/11/03 04:56:04;;;;;;;16.23;10.90;;;;;;;8.05;100.00;97109.44;4935949;29;20032;-75
2021/11/03 04:58:31;;;;;;;17.35;11.70;;;;;;;8.06;100.00;97097.47;4938036;29;20035;-76
2021/11/03 05:00:56;;;;;;;17.55;11.02;;;;;;;8.16;100.00;97096.47;4940021;29;20032;-76
2021/11/03 05:03:21;;;;;;;14.68;10.73;;;;;;;8.15;100.00;97112.00;4933382;29;20082;-75
2021/11/03 05:05:48;;;;;;;14.63;10.80;;;;;;;8.10;100.00;97106.66;4933513;29;20032;-75
2021/11/03 05:08:14;;;;;;;16.38;10.85;;;;;;;8.02;100.00;97104.59;4936370;29;20027;-76
2021/11/03 05:10:40;;;;;;;17.63;10.68;;;;;;;8.09;100.00;97075.88;4942080;29;20043;-75
2021/11/03 05:13:05;;;;;;;16.90;11.15;;;;;;;8.16;100.00;97085.56;4938346;28;20150;-76
2021/11/03 05:15:31;;;;;;;15.80;10.30;;;;;;;8.04;100.00;97094.25;4934371;29;20111;-76
2021/11/03 05:17:57;;;;;;;17.65;11.02;;;;;;;8.01;100.00;97094.84;4933785;29;20087;-75
2021/11/03 05:20:22;;;;;;;16.50;11.20;;;;;;;8.09;100.00;97083.25;4933426;29;20023;-76
2021/11/03 05:22:48;;;;;;;19.20;11.10;;;;;;;8.16;100.00;97075.50;4934213;29;20134;-76
2021/11/03 05:25:21;;;;;;;17.88;11.48;;;;;;;8.11;100.00;97072.88;4933165;29;20027;-77
2021/11/03 05:27:47;;;;;;;20.10;11.15;;;;;;;8.06;100.00;97086.56;4916382;29;20035;-76
2021/11/03 05:30:12;;;;;;;18.55;11.27;;;;;;;8.03;100.00;97084.44;4916108;29;20465;-76
2021/11/03 05:32:39;;;;;;;15.40;9.63;;;;;;;8.11;100.00;97078.31;4933579;29;20027;-75
2021/11/03 05:35:05;;;;;;;15.85;10.82;;;;;;;8.17;100.00;97071.66;4934110;29;20453;-76
2021/11/03 05:37:31;;;;;;;18.30;10.63;;;;;;;8.24;100.00;97077.50;4936585;29;20070;-76
2021/11/03 05:39:56;;;;;;;19.10;10.32;;;;;;;8.27;100.00;97087.00;4943201;29;20604;-76
2021/11/03 05:42:22;;;;;;;15.73;10.05;;;;;;;8.24;100.00;97084.88;4943696;29;20034;-76
2021/11/03 05:44:48;;;;;;;20.60;11.15;;;;;;;8.27;100.00;97082.34;4951191;29;20058;-77
2021/11/03 05:47:21;;;;;;;17.33;9.90;;;;;;;8.38;100.00;97091.16;4949423;29;20024;-75
2021/11/03 05:49:47;;;;;;;18.98;10.45;;;;;;;8.40;100.00;97095.19;4945731;29;20027;-76
2021/11/03 05:52:13;;;;;;;16.13;10.10;;;;;;;8.38;100.00;97100.16;4941653;29;20070;-75
2021/11/03 05:54:39;;;;;;;17.63;10.27;;;;;;;8.34;100.00;97090.97;4941744;29;20485;-76
2021/11/03 05:57:05;;;;;;;15.75;10.52;;;;;;;8.18;100.00;97100.50;4939978;29;20031;-77
2021/11/03 05:59:32;;;;;;;27.83;11.30;;;;;;;8.31;100.00;97088.03;4940637;29;20441;-76
2021/11/03 06:01:58;;;;;;;21.60;12.05;;;;;;;8.40;100.00;97095.19;4935645;29;20019;-77
2021/11/03 06:04:24;;;;;;;25.27;12.23;;;;;;;8.30;100.00;97092.66;4933206;29;20019;-76
2021/11/03 06:06:53;;;;;;;23.48;13.48;;;;;;;8.23;100.00;97097.69;4961582;29;20038;-76
2021/11/03 06:09:19;;;;;;;22.23;11.68;;;;;;;8.28;100.00;97099.53;4944853;29;20481;-77
2021/11/03 06:11:45;;;;;;;23.63;12.63;;;;;;;8.21;100.00;97094.44;4939517;29;20027;-76
2021/11/03 06:14:12;;;;;;;21.92;12.13;;;;;;;8.23;100.00;97086.81;4940840;29;20030;-76
2021/11/03 06:16:37;;;;;;;22.42;13.68;;;;;;;8.20;100.00;97095.56;4940405;29;20040;-75
2021/11/03 06:19:04;;;;;;;23.35;12.75;;;;;;;8.06;100.00;97097.47;4939657;29;20031;-75
2021/11/03 06:21:32;;;;;;;23.80;12.50;;;;;;;7.95;100.00;97099.56;4943525;29;20026;-76
2021/11/03 06:23:58;;;;;;;21.63;12.15;;;;;;;7.89;100.00;97102.69;4940566;29;20110;-75
2021/11/03 06:26:23;;;;;;;22.98;11.77;;;;;;;7.95;100.00;97096.03;4939676;29;20127;-75
2021/11/03 06:28:50;;;;;;;20.67;11.25;;;;;;;7.94;100.00;97100.69;4941941;29;20035;-74
2021/11/03 06:31:15;;;;;;;26.77;12.27;;;;;;;8.03;100.00;97109.75;4942955;29;20040;-73
2021/11/03 06:33:41;;;;;;;21.20;10.77;;;;;;;8.15;100.00;97101.09;4952054;29;20070;-75
2021/11/03 06:36:08;;;;;;;23.10;11.63;;;;;;;8.13;100.00;97108.78;4939695;29;20054;-76
2021/11/03 06:38:35;;;;;;;20.48;11.90;;;;;;;8.16;100.00;97113.63;4937087;29;20032;-76
2021/11/03 06:41:01;;;;;;;26.75;11.68;;;;;;;7.93;100.00;97125.47;4944746;29;20416;-77
2021/11/03 06:43:27;;;;;;;25.02;11.70;;;;;;;8.14;100.00;97136.81;4955780;29;20031;-77
2021/11/03 06:45:53;;;;;;;21.55;10.57;;;;;;;8.24;100.00;97131.19;4955340;29;20051;-77
2021/11/03 06:48:19;;;;;;;21.73;11.15;;;;;;;8.20;100.00;97125.53;4947608;29;20552;-77
2021/11/03 06:50:45;;;;;;;23.33;11.10;;;;;;;8.40;100.00;97132.53;4949775;29;20078;-77
2021/11/03 06:53:15;;;;;;;22.30;11.82;;;;;;;8.41;100.00;97129.53;4952223;29;20065;-77
2021/11/03 06:55:40;;;;;;;18.05;10.18;;;;;;;8.49;100.00;97137.00;4953403;29;20127;-77
2021/11/03 06:58:06;;;;;;;23.42;12.02;;;;;;;8.46;100.00;97137.59;4935287;29;20094;-77
2021/11/03 07:00:36;;;;;;;19.67;10.05;;;;;;;8.55;100.00;97138.50;4934407;29;20039;-77
2021/11/03 07:03:02;;;;;;;18.98;10.75;;;;;;;8.57;100.00;97141.75;4933578;29;20028;-77
2021/11/03 07:05:30;;;;;;;19.80;10.52;;;;;;;8.59;100.00;97147.69;4933141;29;20091;-77
2021/11/03 07:07:56;;;;;;;25.10;9.93;;;;;;;8.29;100.00;97145.56;4945656;29;20047;-77
2021/11/03 07:10:34;;;;;;;21.15;10.88;;;;;;;8.41;100.00;97145.88;4952472;29;20031;-77
2021/11/03 07:13:00;;;;;;;24.55;11.25;;;;;;;8.48;100.00;97140.03;4953704;29;20035;-77
2021/11/03 07:15:27;;;;;;;23.73;11.18;;;;;;;8.52;100.00;97147.28;4922056;29;20035;-77
2021/11/03 07:17:53;;;;;;;17.60;9.77;;;;;;;8.59;100.00;97147.69;4933018;29;20575;-77
2021/11/03 07:20:18;;;;;;;19.65;10.82;;;;;;;8.53;100.00;97154.34;4928814;28;20031;-77
2021/11/03 07:22:44;;;;;;;20.75;11.10;;;;;;;8.56;100.00;97159.22;4935117;29;20027;-77
2021/11/03 07:25:14;;;;;;;24.50;11.18;;;;;;;8.56;100.00;97166.56;4952628;29;20504;-77
2021/11/03 07:27:40;;;;;;;23.17;11.02;;;;;;;8.54;100.00;97163.34;4952486;29;20028;-78
2021/11/03 07:30:06;;;;;;;17.85;9.48;;;;;;;8.44;100.00;97158.09;4935883;29;20047;-78
2021/11/03 07:32:32;;;;;;;21.25;10.63;;;;;;;8.37;100.00;97158.47;4937168;29;20034;-77
2021/11/03 07:34:58;;;;;;;22.10;10.52;;;;;;;8.39;100.00;97172.63;4943983;29;20397;-76
2021/11/03 07:37:23;;;;;;;22.40;11.77;;;;;;;8.16;100.00;97164.56;4936639;29;20396;-76
2021/11/03 07:39:49;;;;;;;24.77;11.10;;;;;;;8.42;100.00;97166.56;4920093;29;20095;-77
2021/11/03 07:42:14;;;;;;;20.98;10.65;;;;;;;8.42;100.00;97152.94;4937874;29;20078;-75
2021/11/03 07:44:40;;;;;;;24.58;11.57;;;;;;;8.10;100.00;97166.56;4936323;29;20024;-76
2021/11/03 07:47:05;;;;;;;23.40;12.30;;;;;;;8.23;100.00;97173.97;4951483;29;20027;-78
2021/11/03 07:49:31;;;;;;;29.35;10.52;;;;;;;8.09;100.00;97173.13;4960514;29;20081;-76
2021/11/03 07:51:56;;;;;;;25.67;11.73;;;;;;;8.07;100.00;97175.34;4953555;29;20043;-78
2021/11/03 07:54:22;;;;;;;28.05;12.10;;;;;;;7.94;100.00;97167.94;4953686;29;20055;-79
2021/11/03 07:56:48;;;;;;;22.95;10.70;;;;;;;8.18;100.00;97181.41;4967000;29;20030;-80
2021/11/03 07:59:15;;;;;;;24.90;11.68;;;;;;;8.40;100.00;97185.13;4954811;29;20027;-80
2021/11/03 08:01:41;;;;;;;24.20;11.63;;;;;;;8.46;100.00;97183.91;4949245;29;20039;-79
2021/11/03 08:04:08;;;;;;;20.38;10.43;;;;;;;8.72;100.00;97183.44;4950792;29;20015;-79
2021/11/03 08:06:39;;;;;;;23.63;11.00;;;;;;;8.77;100.00;97186.09;4954335;29;20046;-80
2021/11/03 08:09:06;;;;;;;26.60;12.48;;;;;;;8.57;100.00;97179.91;4970641;29;20039;-79
2021/11/03 08:11:51;;;;;;;26.90;12.77;;;;;;;8.70;100.00;97177.50;4958284;29;20051;-79
2021/11/03 08:14:19;;;;;;;22.20;11.65;;;;;;;8.44;100.00;97177.16;4953288;29;20031;-79
2021/11/03 08:16:53;;;;;;;20.23;12.18;;;;;;;8.34;100.00;97180.88;4951644;28;20034;-78
2021/11/03 08:19:21;;;;;;;24.30;12.45;;;;;;;8.24;100.00;97183.75;4970112;28;20052;-78
2021/11/03 08:21:47;;;;;;;21.48;12.50;;;;;;;8.30;100.00;97174.41;4977316;28;20027;-79
2021/11/03 08:24:13;;;;;;;21.55;12.13;;;;;;;8.53;100.00;97170.72;4958021;28;20045;-79
2021/11/03 08:26:38;;;;;;;19.60;11.88;;;;;;;8.71;100.00;97173.66;4969101;28;20392;-80
2021/11/03 08:29:03;;;;;;;25.20;12.55;;;;;;;8.81;100.00;97173.44;4937339;29;20070;-80
2021/11/03 08:31:29;;;;;;;22.05;11.27;;;;;;;9.01;100.00;97171.13;4952783;29;20024;-79
2021/11/03 08:33:55;;;;;;;22.90;12.02;;;;;;;9.21;100.00;97169.88;4934389;29;20023;-81
2021/11/03 08:36:21;;;;;;;23.90;12.55;;;;;;;9.52;100.00;97159.13;4955835;29;20020;-80
2021/11/03 08:38:49;;;;;;;19.10;11.30;;;;;;;9.97;100.00;97149.00;4936406;29;20083;-80
2021/11/03 08:41:15;;;;;;;17.85;11.18;;;;;;;9.75;100.00;97158.00;4955878;29;20027;-79
2021/11/03 08:43:42;;;;;;;20.90;11.45;;;;;;;9.79;100.00;97159.00;4956991;28;20040;-80
2021/11/03 08:46:09;;;;;;;18.85;11.43;;;;;;;9.84;100.00;97153.41;4996603;28;20030;-79
2021/11/03 08:48:35;;;;;;;21.73;12.45;;;;;;;9.81;100.00;97155.94;4998480;28;20034;-78
2021/11/03 08:51:01;;;;;;;20.92;12.70;;;;;;;9.86;100.00;97150.38;4999349;28;20027;-80
2021/11/03 08:53:26;;;;;;;19.13;12.07;;;;;;;9.40;100.00;97151.44;4998890;28;20031;-81
2021/11/03 08:55:52;;;;;;;25.00;13.35;;;;;;;9.06;100.00;97156.56;4997212;28;20031;-80
2021/11/03 08:58:22;;;;;;;21.13;12.32;;;;;;;9.33;100.00;97153.81;4977808;28;20018;-80
2021/11/03 09:00:51;;;;;;;21.98;11.02;;;;;;;9.34;100.00;97165.50;4977073;28;20126;-81
2021/11/03 09:03:17;;;;;;;19.88;12.43;;;;;;;9.10;100.00;97169.31;4990546;28;20035;-79
2021/11/03 09:05:42;;;;;;;19.45;12.27;;;;;;;9.23;100.00;97155.94;4974425;28;20523;-81
2021/11/03 09:08:10;;;;;;;16.88;10.90;;;;;;;9.36;100.00;97158.66;4962876;29;20054;-80
2021/11/03 09:10:46;;;;;;;19.75;11.00;;;;;;;9.37;100.00;97149.31;4965318;29;20103;-79
2021/11/03 09:13:16;;;;;;;21.90;12.73;;;;;;;9.21;100.00;97152.72;4958538;29;20039;-80
2021/11/03 09:15:41;;;;;;;18.58;11.93;;;;;;;9.42;100.00;97153.88;4962886;28;20040;-79
2021/11/03 09:18:07;;;;;;;19.10;11.85;;;;;;;9.55;100.00;97153.81;4963945;29;20038;-80
2021/11/03 09:20:32;;;;;;;20.42;11.93;;;;;;;9.55;100.00;97151.09;4965866;29;20094;-79
2021/11/03 09:22:58;;;;;;;18.27;11.60;;;;;;;9.69;100.00;97156.50;4961295;29;20050;-79
2021/11/03 09:25:25;;;;;;;17.08;10.52;;;;;;;9.81;100.00;97148.56;4949654;29;20035;-80
2021/11/03 09:27:51;;;;;;;18.85;11.45;;;;;;;9.91;100.00;97156.53;4943907;29;20034;-80
2021/11/03 09:30:21;;;;;;;19.83;11.48;;;;;;;9.53;100.00;97147.88;4963445;28;20055;-79
2021/11/03 09:32:49;;;;;;;23.38;12.43;;;;;;;9.57;100.00;97148.06;4943700;29;20061;-79
2021/11/03 09:35:15;;;;;;;23.80;12.73;;;;;;;9.58;100.00;97139.59;4924180;29;20032;-79
2021/11/03 09:37:41;;;;;;;27.63;12.77;;;;;;;9.56;100.00;97138.25;4943576;29;20091;-80
2021/11/03 09:40:09;;;;;;;21.85;13.20;;;;;;;9.43;100.00;97142.63;4951966;29;20028;-80
2021/11/03 09:42:37;;;;;;;21.90;13.75;;;;;;;9.24;100.00;97128.34;4954183;29;20018;-81
2021/11/03 09:45:22;;;;;;;20.55;12.82;;;;;;;9.39;100.00;97140.84;4967212;28;20093;-79
2021/11/03 09:47:58;;;;;;;22.67;13.10;;;;;;;9.57;100.00;97132.50;4959688;28;20046;-78
2021/11/03 09:50:25;;;;;;;22.65;13.88;;;;;;;9.63;100.00;97114.06;4935446;29;20032;-77
2021/11/03 09:52:58;;;;;;;26.88;13.63;;;;;;;9.69;100.00;97124.56;4917960;29;20110;-79
2021/11/03 09:55:33;;;;;;;20.90;14.23;;;;;;;9.43;100.00;97133.66;4934510;29;20363;-77
2021/11/03 09:58:22;;;;;;;22.25;13.93;;;;;;;9.13;100.00;97122.31;4933646;29;20032;-77
2021/11/03 10:00:55;;;;;;;26.55;14.57;;;;;;;9.54;100.00;97124.94;4941211;29;20571;-78
2021/11/03 10:03:26;;;;;;;22.30;13.40;;;;;;;9.75;100.00;97121.69;4956231;29;20066;-77
2021/11/03 10:06:05;;;;;;;21.27;15.02;;;;;;;9.99;100.00;97111.28;4955188;28;20078;-77
2021/11/03 10:08:39;;;;;;;25.25;16.13;;;;;;;9.79;100.00;97120.78;4975237;28;20105;-77
2021/11/03 10:11:26;;;;;;;25.57;15.93;;;;;;;9.54;100.00;97115.91;4977312;28;20043;-79
2021/11/03 10:13:55;;;;;;;20.55;13.98;;;;;;;9.73;100.00;97123.94;4985103;28;20049;-77
2021/11/03 10:16:20;;;;;;;22.02;13.57;;;;;;;9.86;100.00;97117.59;4988109;28;20042;-79
2021/11/03 10:18:51;;;;;;;17.77;13.23;;;;;;;9.62;100.00;97118.72;4982085;28;20365;-74
2021/11/03 10:21:24;;;;;;;17.60;12.52;;;;;;;9.87;100.00;97124.66;4949855;28;20031;-77
2021/11/03 10:24:11;;;;;;;26.52;13.57;;;;;;;10.05;100.00;97120.94;4958304;29;20043;-78
2021/11/03 10:26:45;;;;;;;19.45;12.10;;;;;;;10.29;100.00;97105.03;4957289;29;20508;-78
2021/11/03 10:29:29;;;;;;;22.73;12.88;;;;;;;10.49;100.00;97103.69;4933964;29;20036;-78
2021/11/03 10:32:03;;;;;;;19.50;12.82;;;;;;;10.33;100.00;97089.63;4943477;29;20522;-79
2021/11/03 10:34:35;;;;;;;19.02;12.93;;;;;;;10.38;100.00;97086.75;4941638;29;20040;-80
2021/11/03 10:37:09;;;;;;;18.52;12.10;;;;;;;10.37;100.00;97087.84;4939858;29;20456;-79
2021/11/03 10:39:57;;;;;;;22.97;15.50;;;;;;;10.22;100.00;97085.53;4958929;29;20035;-80
2021/11/03 10:42:34;;;;;;;21.15;15.20;;;;;;;10.14;100.00;97078.13;4960769;29;20059;-78
2021/11/03 10:45:17;;;;;;;29.83;16.73;;;;;;;9.95;100.00;97072.84;4958803;29;20028;-79
2021/11/03 10:47:50;;;;;;;21.70;14.80;;;;;;;10.00;100.00;97069.16;4953149;29;20054;-79
2021/11/03 10:50:38;;;;;;;23.15;16.23;;;;;;;10.05;100.00;97056.19;4924068;29;20091;-80
2021/11/03 10:53:30;;;;;;;25.38;16.52;;;;;;;10.04;100.00;97059.22;4944336;29;20079;-80
2021/11/03 10:56:10;;;;;;;19.75;15.20;;;;;;;10.05;100.00;97058.09;4939782;29;20032;-78
2021/11/03 10:58:50;;;;;;;25.35;16.92;;;;;;;10.26;100.00;97051.00;4939708;29;20060;-80
2021/11/03 11:01:38;;;;;;;21.40;15.45;;;;;;;10.38;100.00;97050.38;4938559;29;20027;-79
2021/11/03 11:04:15;;;;;;;23.20;15.95;;;;;;;10.44;100.00;97044.47;4941183;29;20083;-80
2021/11/03 11:07:00;;;;;;;17.75;13.48;;;;;;;10.67;100.00;97045.19;4924983;29;20578;-80
2021/11/03 11:09:32;;;;;;;20.92;14.80;;;;;;;10.69;100.00;97037.44;4930206;29;20032;-80
2021/11/03 11:12:02;;;;;;;17.92;14.05;;;;;;;10.51;100.00;97030.34;4930741;29;20030;-80
2021/11/03 11:14:31;;;;;;;31.23;14.57;;;;;;;10.60;100.00;97039.38;4944837;29;20544;-80
2021/11/03 11:17:22;;;;;;;24.45;14.68;;;;;;;10.70;100.00;97028.94;4927279;29;20501;-80
2021/11/03 11:19:51;;;;;;;22.98;14.40;;;;;;;10.88;100.00;97018.81;4949057;29;20036;-80
2021/11/03 11:22:44;;;;;;;17.73;11.65;;;;;;;11.00;100.00;97021.72;4956601;29;20027;-81